Latest Weather Observations for Esperance

IDW60801

Issued at 12:35 pm WST Wednesday 30 July 2014 (issued every 30 minutes, with the page automatically refreshed every 10 minutes)

About weather observations | Map of weather stations | Latest weather observations for WA | Other Formats
Station Details ID: 009789 Name: ESPERANCE Lat: -33.83 Lon: 121.89 Height: 25.0 m
Data from the previous 72 hours. | See also: Recent months at Esperance
Date/Time
WST
Temp
°C
App
Temp
°C
Dew
Point
Rel
Hum
%
Delta-T
°C
Wind Press
QNH
hPa
Press
MSL
hPa
Rain
since 9 am
mm
Dir
 
Spd
km/h
Gust
km/h
Spd
kts
Gust
kts
30/12:30pm 17.4 11.7 8.2 54 4.7 WNW 28 43 15 23 1016.4 - 0.0
30/12:00pm 17.7 11.9 8.1 53 4.9 WNW 28 39 15 21 1016.9 1016.9 0.0
30/11:30am 17.3 10.5 7.6 53 4.9 WNW 33 46 18 25 1017.3 - 0.0
30/11:00am 17.0 10.2 7.7 54 4.7 WNW 33 44 18 24 1017.4 1017.4 0.0
30/10:30am 16.6 9.3 7.4 54 4.6 WNW 35 56 19 30 1017.8 - 0.0
30/10:18am 16.5 10.2 7.5 55 4.5 W 30 54 16 29 1017.9 - 0.0
30/10:00am 16.2 9.5 7.3 55 4.4 W 32 44 17 24 1018.2 1018.2 0.0
30/09:30am 16.2 10.9 8.3 59 4.0 WNW 26 39 14 21 1018.5 - 0.0
30/09:20am 16.0 10.2 8.1 59 4.0 WNW 28 46 15 25 1018.4 - 0.0
30/09:00am 15.5 9.9 8.6 63 3.5 WNW 28 43 15 23 1018.4 1018.4 0.0
30/08:30am 14.2 8.7 9.1 71 2.6 NW 28 39 15 21 1018.5 - 0.0
30/08:00am 13.3 8.6 9.1 76 2.1 NW 24 32 13 17 1018.4 1018.4 0.0
30/07:30am 12.3 8.6 9.3 82 1.5 NW 19 24 10 13 1018.4 - 0.0
30/07:00am 12.2 7.9 9.4 83 1.4 NW 22 32 12 17 1018.3 1018.3 0.0
30/06:30am 12.4 8.1 9.2 81 1.6 NW 22 30 12 16 1018.3 - 0.0
30/06:00am 13.2 8.9 9.3 77 2.0 NW 22 30 12 16 1018.5 1018.5 0.0
30/05:30am 12.8 8.8 9.2 79 1.8 NW 20 28 11 15 1018.4 - 0.0
30/05:00am 12.7 8.0 9.1 79 1.8 NW 24 37 13 20 1018.4 1018.4 0.0
30/04:30am 12.8 7.7 9.2 79 1.8 NW 26 35 14 19 1018.4 - 0.0
30/04:00am 12.9 8.5 9.1 78 1.9 WNW 22 30 12 16 1018.6 1018.6 0.0
30/03:30am 13.1 8.4 9.4 78 1.9 WNW 24 33 13 18 1018.8 - 0.0
30/03:00am 12.9 8.2 9.1 78 1.9 NW 24 39 13 21 1018.9 1018.9 0.0
30/02:30am 13.0 7.4 8.8 75 2.1 NW 28 41 15 22 1019.0 - 0.0
30/02:00am 12.5 7.3 8.7 77 1.9 NW 26 35 14 19 1019.2 1019.2 0.0
30/01:30am 12.1 7.6 8.5 78 1.8 NW 22 28 12 15 1019.3 - 0.0
30/01:00am 12.2 7.2 8.1 76 2.0 NW 24 30 13 16 1019.4 1019.4 0.0
30/12:30am 13.2 8.7 8.4 72 2.4 NW 22 32 12 17 1019.5 - 0.0
30/12:00am 12.9 8.7 8.2 73 2.3 NW 20 28 11 15 1019.7 1019.7 0.0
 
Date/Time
WST
Temp
°C
App
Temp
°C
Dew
Point
Rel
Hum
%
Delta-T
°C
Wind Press
QNH
hPa
Press
MSL
hPa
Rain
since 9 am
mm
Dir
 
Spd
km/h
Gust
km/h
Spd
kts
Gust
kts
29/11:30pm 12.7 8.6 8.0 73 2.3 NW 19 24 10 13 1020.0 - 0.0
29/11:00pm 12.9 8.2 7.6 70 2.6 NW 22 28 12 15 1020.3 1020.3 0.0
29/10:30pm 13.2 9.4 7.5 68 2.8 NW 17 24 9 13 1020.5 - 0.0
29/10:00pm 14.0 9.8 7.5 65 3.2 WNW 19 24 10 13 1020.5 1020.5 0.0
29/09:30pm 15.5 10.3 7.2 57 4.1 NW 24 33 13 18 1020.5 - 0.0
29/09:00pm 15.8 11.7 8.5 62 3.7 NW 20 30 11 16 1020.7 1020.7 0.0
29/08:30pm 15.6 12.3 9.4 66 3.2 NW 17 20 9 11 1020.7 - 0.0
29/08:00pm 15.6 12.7 9.8 68 3.0 NW 15 20 8 11 1020.7 1020.7 0.0
29/07:30pm 15.6 13.9 11.3 75 2.3 NNW 11 17 6 9 1020.4 - 0.0
29/07:00pm 15.6 14.3 11.3 75 2.3 NNW 9 15 5 8 1020.4 1020.4 0.0
29/06:30pm 15.6 14.4 11.7 77 2.1 NNW 9 48 5 26 1020.5 - 0.0
29/06:00pm 15.8 15.1 11.9 77 2.1 NW 7 9 4 5 1020.3 1020.3 0.0
29/05:30pm 16.2 15.5 12.0 76 2.3 W 7 9 4 5 1020.0 - 0.0
29/05:00pm 16.6 15.4 11.6 72 2.7 WSW 9 15 5 8 1019.8 1019.8 0.0
29/04:30pm 16.9 15.6 11.3 69 3.0 WSW 9 17 5 9 1019.7 - 0.0
29/04:00pm 17.2 15.1 11.1 67 3.3 WSW 13 19 7 10 1019.7 1019.7 0.0
29/03:30pm 17.5 15.4 11.0 65 3.5 SW 13 19 7 10 1019.6 - 0.0
29/03:00pm 18.5 16.1 10.0 57 4.5 WSW 13 19 7 10 1019.5 1019.5 0.0
29/02:30pm 18.2 14.9 9.4 56 4.6 W 17 24 9 13 1019.5 - 0.0
29/02:00pm 18.5 14.5 9.1 54 4.9 W 20 32 11 17 1019.6 1019.6 0.0
29/01:30pm 18.1 13.0 7.6 50 5.3 WSW 24 33 13 18 1019.8 - 0.0
29/01:00pm 18.8 13.5 8.3 50 5.4 W 26 37 14 20 1019.8 1019.8 0.0
29/12:30pm 18.4 13.1 8.5 52 5.1 W 26 39 14 21 1020.3 - 0.0
29/12:00pm 18.4 13.1 8.3 51 5.2 W 26 35 14 19 1020.6 1020.6 0.0
29/11:30am 18.2 13.4 8.7 54 4.9 W 24 43 13 23 1020.7 - 0.0
29/11:00am 17.5 12.7 9.0 57 4.4 W 24 39 13 21 1021.1 1021.1 0.0
29/10:30am 17.1 12.6 10.1 63 3.7 WNW 24 33 13 18 1021.4 - 0.0
29/10:00am 16.4 11.9 9.9 65 3.4 WNW 24 35 13 19 1021.6 1021.6 0.0
29/09:30am 15.7 10.8 9.9 68 3.0 WNW 26 35 14 19 1021.5 - 0.0
29/09:00am 14.9 11.4 10.3 74 2.4 WNW 19 24 10 13 1021.5 1021.5 0.0
29/08:30am 13.1 9.3 9.8 80 1.7 WNW 20 32 11 17 1021.2 - 0.0
29/08:00am 12.2 7.9 9.2 82 1.5 WNW 22 30 12 16 1021.1 1021.1 0.0
29/07:30am 11.4 6.7 9.2 86 1.1 WNW 24 33 13 18 1020.8 - 0.0
29/07:00am 11.1 7.1 9.1 87 1.0 WNW 20 28 11 15 1020.6 1020.6 0.0
29/06:30am 11.1 6.7 9.1 87 1.0 NW 22 30 12 16 1020.4 - 0.0
29/06:00am 11.3 6.6 9.1 86 1.1 WNW 24 35 13 19 1019.8 1019.8 0.0
29/05:30am 11.3 6.5 8.9 85 1.2 NW 24 35 13 19 1019.5 - 0.0
29/05:00am 11.2 6.1 9.2 87 1.0 WNW 26 33 14 18 1019.4 1019.4 0.0
29/04:30am 11.4 7.4 9.2 86 1.1 NW 20 30 11 16 1019.3 - 0.0
29/04:00am 11.7 8.0 9.3 85 1.2 WNW 19 30 10 16 1019.3 1019.3 0.0
29/03:30am 11.7 7.4 9.3 85 1.2 WNW 22 30 12 16 1019.0 - 0.0
29/03:00am 12.1 7.4 9.3 83 1.4 NW 24 32 13 17 1018.7 1018.7 0.0
29/02:30am 12.2 7.5 9.2 82 1.5 WNW 24 33 13 18 1018.6 - 0.0
29/02:00am 12.3 7.2 9.3 82 1.5 WNW 26 35 14 19 1018.7 1018.7 0.0
29/01:30am 12.6 6.7 9.2 80 1.7 NW 30 37 16 20 1018.6 - 0.0
29/01:00am 12.6 7.2 9.4 81 1.6 NW 28 35 15 19 1018.7 1018.7 0.0
29/12:30am 12.5 7.8 9.3 81 1.6 NW 24 32 13 17 1018.7 - 0.0
29/12:00am 12.6 7.1 9.2 80 1.7 NW 28 37 15 20 1018.8 1018.8 0.0
 
Date/Time
WST
Temp
°C
App
Temp
°C
Dew
Point
Rel
Hum
%
Delta-T
°C
Wind Press
QNH
hPa
Press
MSL
hPa
Rain
since 9 am
mm
Dir
 
Spd
km/h
Gust
km/h
Spd
kts
Gust
kts
28/11:30pm 12.7 8.4 9.5 81 1.6 NW 22 30 12 16 1018.9 - 0.0
28/11:00pm 13.0 8.7 9.5 79 1.8 NW 22 32 12 17 1018.9 1018.9 0.0
28/10:30pm 13.2 8.9 9.5 78 1.9 NW 22 35 12 19 1019.2 - 0.0
28/10:00pm 13.6 8.9 9.3 75 2.2 NW 24 32 13 17 1019.4 1019.4 0.0
28/09:30pm 13.7 9.4 9.2 74 2.3 NW 22 30 12 16 1019.4 - 0.0
28/09:00pm 13.6 9.7 9.3 75 2.2 NW 20 26 11 14 1019.5 1019.5 0.0
28/08:30pm 13.9 9.9 9.2 73 2.4 NW 20 28 11 15 1019.4 - 0.0
28/08:00pm 14.1 9.7 9.0 71 2.6 NW 22 30 12 16 1019.2 1019.2 0.0
28/07:30pm 14.3 10.2 8.8 69 2.8 NW 20 26 11 14 1019.2 - 0.0
28/07:00pm 14.3 10.9 9.2 71 2.6 NW 17 20 9 11 1019.3 1019.3 0.0
28/06:30pm 14.8 12.3 9.6 71 2.7 NW 13 19 7 10 1018.9 - 0.0
28/06:00pm 15.4 12.9 9.8 69 2.9 WNW 13 17 7 9 1018.7 1018.7 0.0
28/05:30pm 16.3 13.8 9.8 65 3.4 WNW 13 17 7 9 1018.4 - 0.0
28/05:00pm 17.4 14.5 9.6 60 4.1 W 15 20 8 11 1018.3 1018.3 0.0
28/04:30pm 17.7 13.3 8.8 56 4.6 WNW 22 35 12 19 1017.8 - 0.0
28/04:00pm 18.6 13.3 8.5 52 5.2 WNW 26 39 14 21 1017.6 1017.6 0.0
28/03:30pm 18.8 13.5 8.6 51 5.3 WNW 26 41 14 22 1017.4 - 0.0
28/03:00pm 19.0 12.8 7.9 48 5.7 WNW 30 43 16 23 1017.3 1017.3 0.0
28/02:39pm 18.9 12.4 8.2 50 5.5 WNW 32 50 17 27 1017.2 - 0.0
28/02:30pm 18.4 10.9 7.8 50 5.4 WNW 37 52 20 28 1017.0 - 0.0
28/02:08pm 18.7 12.2 8.0 49 5.5 WNW 32 50 17 27 1016.9 - 0.0
28/02:00pm 19.1 12.7 8.5 50 5.5 WNW 32 44 17 24 1017.1 1017.1 0.0
28/01:30pm 18.8 12.3 8.1 49 5.5 WNW 32 52 17 28 1017.0 - 0.0
28/01:06pm 18.4 11.7 8.0 50 5.3 WNW 33 54 18 29 1016.9 - 0.0
28/01:00pm 18.5 11.4 8.2 51 5.3 WNW 35 48 19 26 1017.1 1017.1 0.0
28/12:30pm 18.4 11.9 8.3 51 5.2 WNW 32 50 17 27 1017.7 - 0.0
28/12:27pm 18.4 12.4 8.5 52 5.1 WNW 30 48 16 26 1017.7 - 0.0
28/12:00pm 17.8 11.4 8.7 55 4.7 WNW 32 46 17 25 1018.3 1018.3 0.0
28/11:30am 17.1 10.4 8.3 56 4.5 WNW 33 59 18 32 1018.6 - 0.0
28/11:05am 16.7 9.6 8.0 56 4.4 WNW 35 56 19 30 1018.8 - 0.0
28/11:00am 16.7 10.1 8.7 59 4.1 WNW 33 48 18 26 1018.9 1018.9 0.0
28/10:30am 16.1 9.8 9.1 63 3.6 WNW 32 44 17 24 1019.1 - 0.0
28/10:00am 15.3 8.8 8.8 65 3.3 WNW 33 50 18 27 1019.1 1019.1 0.0
28/09:54am 15.2 8.8 8.7 65 3.3 WNW 32 50 17 27 1019.3 - 0.0
28/09:30am 14.7 9.5 9.0 68 2.9 WNW 26 41 14 22 1019.4 - 0.0
28/09:00am 13.7 8.1 8.9 73 2.4 WNW 28 37 15 20 1019.2 1019.2 0.0
28/08:30am 12.8 7.2 8.6 75 2.1 NW 28 37 15 20 1018.9 - 0.0
28/08:00am 12.1 6.1 8.5 78 1.8 NW 30 41 16 22 1018.5 1018.5 0.0
28/07:30am 11.4 5.7 8.3 81 1.5 NW 28 33 15 18 1018.2 - 0.0
28/07:00am 11.2 5.1 8.3 82 1.4 NW 30 37 16 20 1018.1 1018.1 0.0
28/06:30am 11.2 5.9 8.3 82 1.4 NW 26 37 14 20 1018.1 - 0.0
28/06:00am 11.3 5.9 8.2 81 1.5 NW 26 35 14 19 1017.8 1017.8 0.0
28/05:30am 11.4 5.7 8.3 81 1.5 NW 28 37 15 20 1017.8 - 0.0
28/05:00am 11.3 6.0 8.5 83 1.4 NW 26 35 14 19 1017.6 1017.6 0.0
28/04:30am 11.3 6.0 8.5 83 1.4 NW 26 35 14 19 1017.7 - 0.0
28/04:00am 11.4 5.8 8.6 83 1.4 NW 28 37 15 20 1017.8 1017.8 0.0
28/03:30am 11.5 6.7 8.7 83 1.4 NW 24 32 13 17 1018.1 - 0.0
28/03:00am 11.8 7.7 8.8 82 1.5 NW 20 28 11 15 1018.3 1018.3 0.0
28/02:30am 12.1 7.3 8.7 80 1.7 NW 24 32 13 17 1018.3 - 0.0
28/02:00am 12.2 7.4 9.0 81 1.6 NW 24 33 13 18 1018.2 1018.2 0.0
28/01:30am 12.5 7.4 9.1 80 1.7 NW 26 35 14 19 1018.2 - 0.0
28/01:00am 12.9 7.8 9.3 79 1.8 NW 26 35 14 19 1018.2 1018.2 0.0
28/12:30am 13.0 8.0 9.5 79 1.8 WNW 26 32 14 17 1018.5 - 0.0
28/12:00am 13.1 8.2 9.8 80 1.7 NW 26 37 14 20 1018.5 1018.5 0.0
 
Date/Time
WST
Temp
°C
App
Temp
°C
Dew
Point
Rel
Hum
%
Delta-T
°C
Wind Press
QNH
hPa
Press
MSL
hPa
Rain
since 9 am
mm
Dir
 
Spd
km/h
Gust
km/h
Spd
kts
Gust
kts
27/11:30pm 13.3 7.7 10.0 80 1.7 NW 30 39 16 21 1018.5 - 0.0
27/11:00pm 13.4 8.1 9.9 79 1.8 NW 28 37 15 20 1018.7 1018.7 0.0
27/10:30pm 12.9 8.3 9.8 81 1.6 NW 24 30 13 16 1018.9 - 0.0
27/10:00pm 12.9 8.7 9.6 80 1.7 NW 22 30 12 16 1018.9 1018.9 0.0
27/09:30pm 13.0 9.0 9.2 78 1.9 NW 20 28 11 15 1019.0 - 0.0
27/09:00pm 13.4 8.6 9.0 75 2.2 NW 24 32 13 17 1019.0 1019.0 0.0
27/08:30pm 13.6 8.9 9.1 74 2.3 NW 24 33 13 18 1019.0 - 0.0
27/08:00pm 13.7 9.4 9.2 74 2.3 NW 22 30 12 16 1018.9 1018.9 0.0
27/07:30pm 13.6 9.7 8.8 73 2.4 NNW 19 26 10 14 1018.8 - 0.0
27/07:00pm 14.0 9.9 8.6 70 2.7 NNW 20 32 11 17 1018.8 1018.8 0.0
27/06:30pm 14.1 10.7 9.0 71 2.6 NW 17 20 9 11 1018.5 - 0.0
27/06:00pm 14.3 11.2 9.0 70 2.7 NW 15 19 8 10 1018.4 1018.4 0.0
27/05:30pm 14.9 11.9 9.2 68 2.9 NW 15 20 8 11 1018.1 - 0.0
27/05:00pm 15.7 11.6 8.8 63 3.5 NW 20 24 11 13 1017.9 1017.9 0.0
27/04:30pm 16.6 11.8 8.8 60 4.0 WNW 24 37 13 20 1017.7 - 0.0
27/04:00pm 16.7 11.9 8.7 59 4.1 WNW 24 35 13 19 1017.6 1017.6 0.0
27/03:30pm 17.4 12.1 8.4 55 4.6 WNW 26 35 14 19 1017.5 - 0.0
27/03:00pm 17.6 12.1 7.7 52 5.0 WNW 26 35 14 19 1017.2 1017.2 0.0
27/02:30pm 17.9 12.0 7.6 51 5.2 NW 28 43 15 23 1017.2 - 0.0
27/02:00pm 18.2 12.0 7.8 50 5.3 NW 30 41 16 22 1017.3 1017.3 0.0
27/01:30pm 17.7 11.6 6.8 49 5.4 WNW 28 46 15 25 1017.5 - 0.0
27/01:00pm 17.8 11.9 7.7 51 5.1 WNW 28 39 15 21 1017.7 1017.7 0.0

Other Formats:

Comma delimited format used in spreadsheet applications
http://www.bom.gov.au/fwo/IDW60801/IDW60801.94638.axf

JavaScript Object Notation format (JSON) in row-major order
http://www.bom.gov.au/fwo/IDW60801/IDW60801.94638.json